createdAt,value
2018-05-11T00:02:17.992Z,94865.05
2018-05-11T00:04:44.634Z,94866.48
2018-05-11T00:07:11.262Z,94862.01
2018-05-11T00:09:37.795Z,94873.56
2018-05-11T00:12:04.345Z,94874.50
2018-05-11T00:14:30.938Z,94879.69
2018-05-11T00:16:57.494Z,94885.06
2018-05-11T00:19:23.993Z,94880.92
2018-05-11T00:21:50.578Z,94881.92
2018-05-11T00:24:17.096Z,94885.99
2018-05-11T00:26:43.789Z,94881.42
2018-05-11T00:29:10.611Z,94877.36
2018-05-11T00:31:37.483Z,94872.08
2018-05-11T00:34:03.997Z,94868.61
2018-05-11T00:36:30.573Z,94867.81
2018-05-11T00:38:57.056Z,94874.02
2018-05-11T00:41:23.709Z,94876.95
2018-05-11T00:43:50.294Z,94878.87
2018-05-11T00:46:16.865Z,94883.45
2018-05-11T00:48:43.454Z,94884.48
2018-05-11T00:51:09.963Z,94890.16
2018-05-11T00:53:36.773Z,94892.50
2018-05-11T00:56:03.373Z,94888.42
2018-05-11T00:58:29.846Z,94891.97
2018-05-11T01:00:56.428Z,94889.46
2018-05-11T01:03:22.961Z,94887.09
2018-05-11T01:05:49.696Z,94891.17
2018-05-11T01:08:16.330Z,94885.48
2018-05-11T01:10:43.103Z,94890.77
2018-05-11T01:13:09.727Z,94894.02
2018-05-11T01:15:36.329Z,94892.09
2018-05-11T01:18:02.814Z,94891.67
2018-05-11T01:20:29.407Z,94892.08
2018-05-11T01:22:56.033Z,94894.01
2018-05-11T01:25:22.610Z,94895.03
2018-05-11T01:27:49.143Z,94894.61
2018-05-11T01:30:15.669Z,94892.39
2018-05-11T01:32:42.343Z,94891.28
2018-05-11T01:35:09.034Z,94895.83
2018-05-11T01:37:35.612Z,94894.10
2018-05-11T01:40:02.159Z,94888.80
2018-05-11T01:42:28.783Z,94889.73
2018-05-11T01:44:55.219Z,94888.02
2018-05-11T01:47:21.773Z,94887.89
2018-05-11T01:49:48.389Z,94881.92
2018-05-11T01:52:15.056Z,94880.41
2018-05-11T01:54:41.640Z,94881.73
2018-05-11T01:57:08.268Z,94885.09
2018-05-11T01:59:34.764Z,94888.63
2018-05-11T02:02:01.266Z,94887.02
2018-05-11T02:04:27.921Z,94887.73
2018-05-11T02:06:54.506Z,94894.01
2018-05-11T02:12:02.089Z,94890.77
2018-05-11T02:14:28.568Z,94893.92
2018-05-11T02:16:55.176Z,94893.02
2018-05-11T02:19:21.764Z,94894.41
2018-05-11T02:21:48.298Z,94886.46
2018-05-11T02:24:15.007Z,94885.56
2018-05-11T02:26:48.606Z,94887.48
2018-05-11T02:29:15.081Z,94890.45
2018-05-11T02:31:41.584Z,94898.56
2018-05-11T02:34:08.228Z,94904.55
2018-05-11T02:36:34.748Z,94902.73
2018-05-11T02:39:01.260Z,94903.44
2018-05-11T02:41:27.906Z,94907.61
2018-05-11T02:43:54.494Z,94907.61
2018-05-11T02:46:21.123Z,94910.63
2018-05-11T02:48:47.663Z,94910.13
2018-05-11T02:51:14.322Z,94917.13
2018-05-11T02:53:40.897Z,94921.91
2018-05-11T02:56:07.510Z,94920.98
2018-05-11T02:58:34.072Z,94917.75
2018-05-11T03:01:00.647Z,94922.94
2018-05-11T03:03:27.306Z,94922.22
2018-05-11T03:05:53.865Z,94931.55
2018-05-11T03:08:20.441Z,94928.81
2018-05-11T03:10:47.138Z,94930.58
2018-05-11T03:13:13.849Z,94928.25
2018-05-11T03:15:40.546Z,94933.79
2018-05-11T03:18:07.145Z,94936.07
2018-05-11T03:20:33.855Z,94933.11
2018-05-11T03:23:00.590Z,94951.91
2018-05-11T03:32:12.196Z,94965.88
2018-05-11T03:34:38.688Z,94965.02
2018-05-11T03:37:05.215Z,94965.61
2018-05-11T03:39:31.803Z,94975.99
2018-05-11T03:41:59.008Z,94973.86
2018-05-11T03:44:25.623Z,94983.30
2018-05-11T03:46:52.183Z,94984.49
2018-05-11T03:49:18.715Z,94991.71
2018-05-11T03:51:45.260Z,94990.91
2018-05-11T03:54:11.809Z,94986.31
2018-05-11T03:56:38.566Z,94993.01
2018-05-11T03:59:05.239Z,94992.69
2018-05-11T04:01:43.946Z,95000.40
2018-05-11T04:04:22.715Z,95000.70
2018-05-11T04:07:01.476Z,95004.58
2018-05-11T04:09:27.869Z,95002.14
2018-05-11T04:11:54.506Z,95004.91
2018-05-11T04:14:21.577Z,95006.61
2018-05-11T04:16:48.270Z,95004.27
2018-05-11T04:19:14.854Z,95013.93
2018-05-11T04:21:41.698Z,95019.80
2018-05-11T04:24:08.319Z,95017.88
2018-05-11T04:26:35.108Z,95019.51
2018-05-11T04:29:01.662Z,95017.50
2018-05-11T04:31:28.155Z,95018.03
2018-05-11T04:33:54.851Z,95019.03
2018-05-11T04:36:21.682Z,95028.37
2018-05-11T04:38:48.318Z,95024.50
2018-05-11T04:41:14.834Z,95021.17
2018-05-11T04:43:41.468Z,95024.00
2018-05-11T04:46:07.964Z,95030.22
2018-05-11T04:51:15.600Z,95038.66
2018-05-11T04:53:42.166Z,95039.14
2018-05-11T04:56:08.822Z,95044.30
2018-05-11T04:58:35.439Z,95042.22
2018-05-11T05:01:01.932Z,95045.95
2018-05-11T05:03:28.519Z,95051.36
2018-05-11T05:05:54.950Z,95052.38
2018-05-11T05:08:21.420Z,95065.35
2018-05-11T05:10:48.051Z,95065.88
2018-05-11T05:13:14.613Z,95060.91
2018-05-11T05:15:41.206Z,95061.50
2018-05-11T05:18:07.734Z,95057.47
2018-05-11T05:20:34.490Z,95057.68
2018-05-11T05:23:01.072Z,95054.81
2018-05-11T05:25:27.669Z,95059.30
2018-05-11T05:27:54.209Z,95059.31
2018-05-11T05:30:20.746Z,95064.78
2018-05-11T05:32:47.365Z,95062.44
2018-05-11T05:35:13.888Z,95068.56
2018-05-11T05:37:40.324Z,95065.60
2018-05-11T05:40:06.737Z,95057.89
2018-05-11T05:42:33.214Z,95052.38
2018-05-11T05:45:06.747Z,95058.80
2018-05-11T05:47:33.217Z,95054.44
2018-05-11T05:49:59.793Z,95054.42
2018-05-11T05:52:26.285Z,95059.40
2018-05-11T05:54:52.849Z,95067.64
2018-05-11T05:57:19.422Z,95064.30
2018-05-11T05:59:45.988Z,95062.05
2018-05-11T06:02:12.534Z,95071.20
2018-05-11T06:04:39.149Z,95069.37
2018-05-11T06:07:05.652Z,95070.38
2018-05-11T06:09:32.311Z,95077.01
2018-05-11T06:11:58.997Z,95071.30
2018-05-11T06:14:25.516Z,95069.48
2018-05-11T06:16:51.991Z,95072.84
2018-05-11T06:19:18.431Z,95081.98
2018-05-11T06:21:44.927Z,95086.55
2018-05-11T06:24:11.486Z,95079.63
2018-05-11T06:26:38.046Z,95082.46
2018-05-11T06:29:04.538Z,95094.54
2018-05-11T06:31:31.032Z,95090.58
2018-05-11T06:33:57.592Z,95100.36
2018-05-11T06:36:24.159Z,95107.16
2018-05-11T06:38:50.705Z,95113.25
2018-05-11T06:41:17.230Z,95110.31
2018-05-11T06:43:43.799Z,95114.09
2018-05-11T06:46:10.410Z,95114.98
2018-05-11T06:48:36.986Z,95110.94
2018-05-11T06:51:03.459Z,95104.21
2018-05-11T06:53:30.004Z,95113.78
2018-05-11T06:55:56.678Z,95110.43
2018-05-11T06:58:23.212Z,95103.81
2018-05-11T07:00:49.771Z,95099.55
2018-05-11T07:03:16.442Z,95103.20
2018-05-11T07:05:43.144Z,95115.09
2018-05-11T07:08:09.632Z,95117.10
2018-05-11T07:10:36.230Z,95120.67
2018-05-11T07:13:05.134Z,95128.38
2018-05-11T07:15:31.564Z,95127.58
2018-05-11T07:17:58.095Z,95124.66
2018-05-11T07:20:24.552Z,95122.01
2018-05-11T07:22:51.147Z,95130.36
2018-05-11T07:25:17.653Z,95133.09
2018-05-11T07:27:44.179Z,95137.08
2018-05-11T07:30:10.823Z,95141.55
2018-05-11T07:32:37.322Z,95140.16
2018-05-11T07:35:03.997Z,95144.00
2018-05-11T07:37:30.424Z,95141.58
2018-05-11T07:39:56.956Z,95149.52
2018-05-11T07:42:23.453Z,95150.42
2018-05-11T07:44:49.941Z,95147.46
2018-05-11T07:47:16.601Z,95149.22
2018-05-11T07:49:43.247Z,95149.52
2018-05-11T07:52:09.800Z,95159.71
2018-05-11T07:54:36.305Z,95154.22
2018-05-11T07:57:02.980Z,95153.25
2018-05-11T07:59:29.555Z,95160.72
2018-05-11T08:01:56.077Z,95161.63
2018-05-11T08:04:22.615Z,95161.54
2018-05-11T08:06:49.134Z,95167.03
2018-05-11T08:09:16.007Z,95159.38
2018-05-11T08:11:42.693Z,95162.22
2018-05-11T08:14:09.283Z,95157.73
2018-05-11T08:16:35.837Z,95161.05
2018-05-11T08:19:02.407Z,95162.16
2018-05-11T08:21:29.009Z,95156.73
2018-05-11T08:23:55.704Z,95163.44
2018-05-11T08:26:22.242Z,95158.87
2018-05-11T08:28:48.731Z,95161.11
2018-05-11T08:31:15.190Z,95157.14
2018-05-11T08:33:41.664Z,95161.89
2018-05-11T08:36:08.313Z,95155.75
2018-05-11T08:38:34.931Z,95162.41
2018-05-11T08:41:01.477Z,95155.67
2018-05-11T08:43:27.901Z,95159.76
2018-05-11T08:45:54.517Z,95161.05
2018-05-11T08:48:21.192Z,95166.81
2018-05-11T08:50:47.821Z,95162.13
2018-05-11T08:53:14.468Z,95156.75
2018-05-11T08:55:41.136Z,95156.32
2018-05-11T08:58:07.689Z,95147.78
2018-05-11T09:00:34.274Z,95149.43
2018-05-11T09:03:00.913Z,95147.48
2018-05-11T09:05:27.453Z,95152.27
2018-05-11T09:07:54.188Z,95145.22
2018-05-11T09:10:20.823Z,95138.53
2018-05-11T09:12:47.579Z,95145.75
2018-05-11T09:15:14.128Z,95146.29
2018-05-11T09:17:40.854Z,95145.55
2018-05-11T09:20:07.405Z,95133.66
2018-05-11T09:22:33.925Z,95137.05
2018-05-11T09:25:00.674Z,95141.53
2018-05-11T09:27:27.314Z,95142.52
2018-05-11T09:29:53.842Z,95137.11
2018-05-11T09:32:20.341Z,95146.72
2018-05-11T09:34:46.889Z,95149.57
2018-05-11T09:37:13.583Z,95148.09
2018-05-11T09:39:40.095Z,95145.47
2018-05-11T09:42:06.751Z,95143.96
2018-05-11T09:44:33.234Z,95140.38
2018-05-11T09:46:59.776Z,95146.44
2018-05-11T09:49:26.410Z,95148.53
2018-05-11T09:51:53.053Z,95145.15
2018-05-11T09:54:19.593Z,95156.34
2018-05-11T09:56:46.104Z,95141.91
2018-05-11T09:59:12.665Z,95150.16
2018-05-11T10:01:39.358Z,95146.47
2018-05-11T10:04:05.865Z,95147.22
2018-05-11T10:06:32.525Z,95143.78
2018-05-11T10:08:59.145Z,95144.94
2018-05-11T10:11:25.620Z,95148.05
2018-05-11T10:13:52.220Z,95150.31
2018-05-11T10:16:18.842Z,95137.91
2018-05-11T10:18:45.434Z,95146.33
2018-05-11T10:21:11.942Z,95142.73
2018-05-11T10:23:38.448Z,95153.30
2018-05-11T10:26:05.128Z,95147.91
2018-05-11T10:28:31.618Z,95137.81
2018-05-11T10:30:58.166Z,95148.52
2018-05-11T10:33:24.783Z,95148.91
2018-05-11T10:35:51.326Z,95136.80
2018-05-11T10:38:17.950Z,95132.89
2018-05-11T10:40:44.513Z,95132.97
2018-05-11T10:43:11.120Z,95139.05
2018-05-11T10:45:37.656Z,95145.75
2018-05-11T10:48:04.337Z,95146.63
2018-05-11T10:50:31.028Z,95136.95
2018-05-11T10:52:57.637Z,95138.73
2018-05-11T10:55:24.275Z,95145.91
2018-05-11T10:57:50.913Z,95158.86
2018-05-11T11:00:17.480Z,95157.30
2018-05-11T11:02:44.045Z,95149.10
2018-05-11T11:05:10.655Z,95146.52
2018-05-11T11:07:37.282Z,95147.79
2018-05-11T11:10:04.206Z,95141.38
2018-05-11T11:12:30.772Z,95141.84
2018-05-11T11:14:57.319Z,95133.23
2018-05-11T11:17:24.041Z,95122.97
2018-05-11T11:19:50.617Z,95110.98
2018-05-11T11:22:17.206Z,95110.33
2018-05-11T11:24:43.847Z,95101.71
2018-05-11T11:27:10.404Z,95102.51
2018-05-11T11:29:37.117Z,95105.38
2018-05-11T11:32:03.678Z,95099.34
2018-05-11T11:34:30.456Z,95094.74
2018-05-11T11:36:56.909Z,95095.20
2018-05-11T11:39:23.553Z,95095.28
2018-05-11T11:41:50.219Z,95093.61
2018-05-11T11:44:16.749Z,95097.05
2018-05-11T11:46:43.534Z,95091.72
2018-05-11T11:49:10.145Z,95083.20
2018-05-11T11:51:36.732Z,95082.11
2018-05-11T11:54:03.381Z,95075.44
2018-05-11T11:56:29.975Z,95077.37
2018-05-11T11:58:56.421Z,95073.12
2018-05-11T12:01:23.022Z,95081.79
2018-05-11T12:03:49.721Z,95089.78
2018-05-11T12:06:16.291Z,95093.34
2018-05-11T12:08:42.921Z,95094.92
2018-05-11T12:11:09.501Z,95090.71
2018-05-11T12:13:36.114Z,95100.19
2018-05-11T12:16:02.771Z,95102.78
2018-05-11T12:18:29.296Z,95091.16
2018-05-11T12:20:55.980Z,95115.88
2018-05-11T12:23:22.617Z,95122.61
2018-05-11T12:25:49.361Z,95137.52
2018-05-11T12:28:15.917Z,95135.87
2018-05-11T12:30:42.646Z,95145.89
2018-05-11T12:33:09.320Z,95185.27
2018-05-11T12:35:35.974Z,95213.63
2018-05-11T12:38:02.536Z,95219.52
2018-05-11T12:40:29.241Z,95245.41
2018-05-11T12:42:55.832Z,95243.77
2018-05-11T12:45:22.381Z,95216.06
2018-05-11T12:47:48.869Z,95211.09
2018-05-11T12:50:15.441Z,95199.76
2018-05-11T12:52:42.054Z,95191.09
2018-05-11T12:55:08.882Z,95190.58
2018-05-11T12:57:35.426Z,95198.86
2018-05-11T13:00:02.022Z,95196.75
2018-05-11T13:02:28.534Z,95192.98
2018-05-11T13:04:55.108Z,95186.78
2018-05-11T13:07:21.704Z,95178.66
2018-05-11T13:09:48.327Z,95197.58
2018-05-11T13:12:14.776Z,95213.65
2018-05-11T13:14:41.308Z,95218.12
2018-05-11T13:17:07.843Z,95235.33
2018-05-11T13:19:34.481Z,95237.22
2018-05-11T13:22:01.209Z,95246.13
2018-05-11T13:24:27.834Z,95256.55
2018-05-11T13:26:54.400Z,95257.05
2018-05-11T13:29:21.059Z,95250.34
2018-05-11T13:31:47.693Z,95242.33
2018-05-11T13:34:14.153Z,95237.37
2018-05-11T13:36:40.600Z,95215.41
2018-05-11T13:39:07.120Z,95211.88
2018-05-11T13:41:33.597Z,95207.63
2018-05-11T13:44:00.236Z,95201.93
2018-05-11T13:46:26.917Z,95206.00
2018-05-11T13:49:00.314Z,95202.13
2018-05-11T13:51:27.485Z,95196.54
2018-05-11T13:53:54.039Z,95193.58
2018-05-11T13:56:20.612Z,95192.27
2018-05-11T13:58:47.208Z,95200.94
2018-05-11T14:01:13.757Z,95192.69
2018-05-11T14:03:40.237Z,95199.53
2018-05-11T14:06:06.894Z,95197.11
2018-05-11T14:08:33.425Z,95202.17
2018-05-11T14:10:59.998Z,95207.09
2018-05-11T14:13:26.650Z,95213.40
2018-05-11T14:15:53.270Z,95215.45
2018-05-11T14:18:19.718Z,95215.34
2018-05-11T14:20:46.358Z,95218.18
2018-05-11T14:23:12.877Z,95218.89
2018-05-11T14:25:39.472Z,95219.52
2018-05-11T14:28:05.975Z,95216.86
2018-05-11T14:30:32.420Z,95219.09
2018-05-11T14:32:58.960Z,95226.92
2018-05-11T14:35:25.582Z,95223.68
2018-05-11T14:37:52.237Z,95220.09
2018-05-11T14:40:18.985Z,95220.10
2018-05-11T14:42:45.605Z,95217.05
2018-05-11T14:45:12.081Z,95212.13
2018-05-11T14:47:38.570Z,95211.81
2018-05-11T14:50:05.177Z,95216.97
2018-05-11T14:52:31.710Z,95213.14
2018-05-11T14:54:58.364Z,95216.91
2018-05-11T14:57:25.091Z,95220.38
2018-05-11T14:59:51.777Z,95218.97
2018-05-11T15:02:18.485Z,95216.36
2018-05-11T15:04:46.113Z,95209.87
2018-05-11T15:07:17.762Z,95212.69
2018-05-11T15:12:35.778Z,95205.95
2018-05-11T15:15:02.791Z,95201.67
2018-05-11T15:17:39.570Z,95208.59
2018-05-11T15:20:07.079Z,95207.28
2018-05-11T15:25:20.844Z,95203.83
2018-05-11T15:27:57.869Z,95202.59
2018-05-11T15:30:27.987Z,95201.67
2018-05-11T15:32:54.779Z,95204.92
2018-05-11T15:35:21.356Z,95207.58
2018-05-11T15:37:52.611Z,95196.59
2018-05-11T15:40:19.489Z,95196.03
2018-05-11T15:42:48.470Z,95196.05
2018-05-11T15:45:18.338Z,95192.91
2018-05-11T15:47:45.120Z,95191.78
2018-05-11T15:53:00.356Z,95199.13
2018-05-11T15:55:28.223Z,95202.97
2018-05-11T15:57:54.809Z,95211.41
2018-05-11T16:00:40.790Z,95205.81
2018-05-11T16:03:09.601Z,95201.56
2018-05-11T16:05:45.394Z,95203.91
2018-05-11T16:11:31.675Z,95207.61
2018-05-11T16:14:00.431Z,95212.59
2018-05-11T16:16:43.359Z,95208.21
2018-05-11T16:19:09.930Z,95208.33
2018-05-11T16:21:43.167Z,95211.38
2018-05-11T16:24:47.323Z,95214.92
2018-05-11T16:30:15.874Z,95215.75
2018-05-11T16:32:51.172Z,95209.94
2018-05-11T16:35:26.418Z,95203.92
2018-05-11T16:37:53.225Z,95206.87
2018-05-11T16:40:20.145Z,95202.99
2018-05-11T16:42:46.714Z,95210.53
2018-05-11T16:45:13.260Z,95202.25
2018-05-11T16:47:54.656Z,95215.02
2018-05-11T16:50:22.053Z,95216.64
2018-05-11T16:56:30.096Z,95212.27
2018-05-11T16:58:59.779Z,95213.36
2018-05-11T17:01:27.085Z,95211.53
2018-05-11T17:03:53.741Z,95201.47
2018-05-11T17:06:20.354Z,95199.03
2018-05-11T17:08:46.973Z,95201.47
2018-05-11T17:11:13.524Z,95196.81
2018-05-11T17:13:40.110Z,95198.55
2018-05-11T17:16:06.913Z,95204.77
2018-05-11T17:18:33.559Z,95203.44
2018-05-11T17:21:01.310Z,95206.70
2018-05-11T17:23:28.005Z,95206.39
2018-05-11T17:26:01.163Z,95198.95
2018-05-11T17:28:32.409Z,95205.05
2018-05-11T17:30:59.731Z,95200.58
2018-05-11T17:33:26.214Z,95204.27
2018-05-11T17:35:52.890Z,95203.23
2018-05-11T17:38:19.578Z,95204.86
2018-05-11T17:40:47.053Z,95209.95
2018-05-11T17:45:46.987Z,95218.52
2018-05-11T17:48:13.724Z,95220.33
2018-05-11T17:50:40.370Z,95223.08
2018-05-11T17:53:07.714Z,95217.68
2018-05-11T17:55:34.148Z,95219.81
2018-05-11T17:58:00.913Z,95224.58
2018-05-11T18:00:27.959Z,95220.63
2018-05-11T18:02:55.720Z,95226.82
2018-05-11T18:05:26.878Z,95228.27
2018-05-11T18:10:40.520Z,95238.98
2018-05-11T18:13:32.136Z,95240.39
2018-05-11T18:19:21.730Z,95240.39
2018-05-11T18:21:49.085Z,95244.28
2018-05-11T18:24:20.105Z,95244.67
2018-05-11T18:29:52.227Z,95241.19
2018-05-11T18:32:18.975Z,95243.13
2018-05-11T18:34:45.753Z,95252.59
2018-05-11T18:37:13.761Z,95252.16
2018-05-11T18:39:40.893Z,95259.89
2018-05-11T18:48:43.556Z,95267.08
2018-05-11T18:51:19.940Z,95270.21
2018-05-11T18:53:48.752Z,95276.07
2018-05-11T18:56:19.791Z,95284.48
2018-05-11T18:58:56.093Z,95292.30
2018-05-11T19:01:24.892Z,95284.68
2018-05-11T19:03:52.184Z,95286.58
2018-05-11T19:38:02.666Z,95302.88
2018-05-11T19:43:16.481Z,95303.34
2018-05-11T19:45:42.996Z,95307.19
2018-05-11T19:51:12.121Z,95305.06
2018-05-11T19:53:39.475Z,95300.87
2018-05-11T19:56:06.171Z,95296.75
2018-05-11T19:58:32.667Z,95303.00
2018-05-11T20:00:59.295Z,95306.36
2018-05-11T20:03:25.797Z,95308.39
2018-05-11T20:05:52.343Z,95312.14
2018-05-11T20:08:18.956Z,95314.41
2018-05-11T20:10:45.606Z,95312.94
2018-05-11T20:13:12.735Z,95306.01
2018-05-11T20:15:39.965Z,95310.16
2018-05-11T20:18:06.684Z,95305.55
2018-05-11T20:20:33.254Z,95304.78
2018-05-11T20:23:00.112Z,95299.60
2018-05-11T20:25:26.601Z,95294.14
2018-05-11T20:27:56.739Z,95281.97
2018-05-11T20:30:23.566Z,95285.71
2018-05-11T20:32:50.319Z,95293.41
2018-05-11T20:35:16.737Z,95295.20
2018-05-11T20:37:43.758Z,95291.90
2018-05-11T20:40:10.697Z,95304.98
2018-05-11T20:42:37.390Z,95303.20
2018-05-11T20:45:04.226Z,95300.82
2018-05-11T20:47:30.810Z,95305.75
2018-05-11T20:49:57.582Z,95307.22
2018-05-11T20:52:24.397Z,95308.89
2018-05-11T20:54:51.268Z,95303.70
2018-05-11T20:57:18.053Z,95305.14
2018-05-11T20:59:44.914Z,95306.16
2018-05-11T21:02:11.798Z,95313.45
2018-05-11T21:04:38.580Z,95314.30
2018-05-11T21:07:05.691Z,95315.13
2018-05-11T21:09:32.554Z,95317.05
2018-05-11T21:11:59.391Z,95319.23
2018-05-11T21:14:28.458Z,95323.11
2018-05-11T21:16:56.194Z,95323.18
2018-05-11T21:19:23.130Z,95318.36
2018-05-11T21:21:50.167Z,95317.76
2018-05-11T21:24:17.918Z,95315.56
2018-05-11T21:26:44.938Z,95317.44
2018-05-11T21:29:11.743Z,95320.07
2018-05-11T21:31:38.369Z,95319.97
2018-05-11T21:34:05.055Z,95326.25
2018-05-11T21:36:31.725Z,95325.89
2018-05-11T21:38:58.793Z,95324.84
2018-05-11T21:41:25.650Z,95325.44
2018-05-11T21:43:52.532Z,95326.78
2018-05-11T21:46:19.587Z,95336.31
2018-05-11T21:48:46.373Z,95334.18
2018-05-11T21:51:13.025Z,95330.92
2018-05-11T21:53:39.770Z,95334.66
2018-05-11T21:56:06.429Z,95334.46
2018-05-11T21:58:33.159Z,95334.66
2018-05-11T22:00:59.865Z,95337.19
2018-05-11T22:03:26.686Z,95341.20
2018-05-11T22:05:53.652Z,95332.86
2018-05-11T22:08:20.152Z,95331.71
2018-05-11T22:10:46.593Z,95329.63
2018-05-11T22:13:13.095Z,95320.25
2018-05-11T22:15:39.759Z,95326.34
2018-05-11T22:18:06.304Z,95323.54
2018-05-11T22:20:32.861Z,95326.34
2018-05-11T22:22:59.297Z,95328.23
2018-05-11T22:25:25.968Z,95335.82
2018-05-11T22:27:52.475Z,95336.61
2018-05-11T22:30:18.996Z,95337.28
2018-05-11T22:32:45.468Z,95332.20
2018-05-11T22:35:12.108Z,95334.63
2018-05-11T22:37:38.766Z,95329.80
2018-05-11T22:40:05.332Z,95324.32
2018-05-11T22:42:31.913Z,95322.02
2018-05-11T22:44:58.463Z,95316.41
2018-05-11T22:47:24.895Z,95313.67
2018-05-11T22:49:51.475Z,95318.34
2018-05-11T22:52:18.081Z,95318.16
2018-05-11T22:54:44.766Z,95322.05
2018-05-11T22:57:11.328Z,95318.05
2018-05-11T22:59:37.841Z,95316.39
2018-05-11T23:02:04.363Z,95320.07
2018-05-11T23:04:31.048Z,95318.09
2018-05-11T23:06:57.805Z,95317.33
2018-05-11T23:09:24.523Z,95314.80
2018-05-11T23:11:51.079Z,95322.88
2018-05-11T23:14:17.608Z,95315.61
2018-05-11T23:16:44.147Z,95315.48
2018-05-11T23:21:37.264Z,95314.71
2018-05-11T23:24:03.811Z,95316.22
2018-05-11T23:26:30.500Z,95320.88
2018-05-11T23:28:57.000Z,95318.04
2018-05-11T23:31:23.573Z,95322.48
2018-05-11T23:33:50.110Z,95320.61
2018-05-11T23:36:16.740Z,95324.30
2018-05-11T23:38:43.476Z,95316.22
2018-05-11T23:41:09.914Z,95323.58
2018-05-11T23:43:36.590Z,95322.27
2018-05-11T23:46:03.094Z,95324.05
2018-05-11T23:48:29.620Z,95322.83
2018-05-11T23:50:56.188Z,95322.64
2018-05-11T23:53:22.844Z,95320.32
2018-05-11T23:55:49.380Z,95311.08
2018-05-11T23:58:16.043Z,95317.81
